Nearby METAR Reports

 

EDLW - Dortmund/Wickede, Germany
Distance from station: OSO 17km
Aktuell: 23/02/2020 11:20
Regen, stark bewölkt
Regen, stark bewölkt
 Wind aus SW
Wind: SW 48 km/h, Windböen: 76 km/h
Temperatur: 11°C
Taupunkt: 10°C
Luftfeuchte: 94%
Luftdruck: 1007 hPa
Zusammenfassung: Regen
Clouds: stark bewölkt
Visibility: 7 km
Cloud details: stark bewölkt 396 m
2020/02/23 10:20 EDLW 231020Z 23026G41KT 7000 RA BKN013 11/10 Q1007
EDDL - Duesseldorf, Germany
Distance from station: SW 52km
Aktuell: 23/02/2020 11:50
Regen, stark bewölkt
Regen, stark bewölkt
 Wind aus WSW
Wind: WSW 54 km/h, Windböen: 74 km/h
Temperatur: 12°C
Taupunkt: 11°C
Luftfeuchte: 94%
Luftdruck: 1009 hPa
Zusammenfassung: Regen
Clouds: stark bewölkt
Visibility: 8 km
Cloud details: teilweise bewölkt 366 m
stark bewölkt 549 m
2020/02/23 10:50 EDDL 231050Z 24029G40KT 8000 RA SCT012 BKN018 12/11 Q1009 TEMPO BKN012
 
EDDG - Muenster/Osnabru, Germany
Distance from station: NNO 67km
Aktuell: 23/02/2020 11:50
sehr leichter Niederschlag, stark bewölkt
sehr leichter Niederschlag, stark bewölkt
 Wind aus WSW
Wind: WSW 35 km/h
Temperatur: 11°C
Taupunkt: 9°C
Luftfeuchte: 88%
Luftdruck: 1005 hPa
Zusammenfassung: sehr leichter Niederschlag
Clouds: stark bewölkt
Visibility: 10 km
Cloud details: leicht bewölkt 152 m
teilweise bewölkt 274 m
stark bewölkt 427 m
2020/02/23 10:50 EDDG 231050Z 24019KT 9999 -RA FEW005 SCT009 BKN014 11/09 Q1005 RERA BECMG 23025G40KT RA BKN015
EDLN - Monchengladbach, Germany
Distance from station: WSW 72km
Aktuell: 23/02/2020 11:50
Regen, geschlossene Wolkendecke
Regen, geschlossene Wolkendecke
 Wind aus WSW
Wind: WSW 35 km/h, Windböen: 67 km/h
Temperatur: 12°C
Taupunkt: 11°C
Luftfeuchte: 94%
Luftdruck: 1010 hPa
Zusammenfassung: Regen
Clouds: geschlossene Wolkendecke
Visibility: 6 km
Cloud details: stark bewölkt 427 m
geschlossene Wolkendecke 701 m
2020/02/23 10:50 EDLN 231050Z 24019G36KT 220V280 6000 RA BKN014 OVC023 12/11 Q1010
 
EDDK - Koeln/Bonn, Germany
Distance from station: SSW 79km
Aktuell: 23/02/2020 11:50
sehr leichter Niederschlag, stark bewölkt
sehr leichter Niederschlag, stark bewölkt
 Wind aus WSW
Wind: WSW 44 km/h, Windböen: 63 km/h
Temperatur: 13°C
Taupunkt: 9°C
Luftfeuchte: 77%
Luftdruck: 1011 hPa
Zusammenfassung: sehr leichter Niederschlag
Clouds: stark bewölkt
Visibility: 10 km
Cloud details: stark bewölkt 792 m
2020/02/23 10:50 EDDK 231050Z 24024G34KT 9999 -RA BKN026 13/09 Q1011 BECMG 23025G45KT RA
EDLP - Paderborn/Lippst, Germany
Distance from station: O 85km
Aktuell: 23/02/2020 11:50
Regen, geschlossene Wolkendecke
Regen, geschlossene Wolkendecke
 Wind aus WSW
Wind: WSW 37 km/h, Windböen: 63 km/h
Temperatur: 11°C
Taupunkt: 9°C
Luftfeuchte: 88%
Luftdruck: 1006 hPa
Zusammenfassung: Regen
Clouds: geschlossene Wolkendecke
Visibility: 10 km
Cloud details: stark bewölkt 488 m
geschlossene Wolkendecke 671 m
2020/02/23 10:50 EDLP 231050Z 24020G34KT 9999 RA BKN016 OVC022 11/09 Q1006
 
EDLV - Niederrhein, Germany
Distance from station: W 86km
Aktuell: 23/02/2020 11:50
Regen, stark bewölkt
Regen, stark bewölkt
 Wind aus WSW
Wind: WSW 41 km/h
Temperatur: 12°C
Taupunkt: 11°C
Luftfeuchte: 94%
Luftdruck: 1008 hPa
Zusammenfassung: Regen
Clouds: stark bewölkt
Visibility: 3 km
Cloud details: stark bewölkt 366 m
2020/02/23 10:50 EDLV 231050Z 25022KT 2500 RA BKN012 12/11 Q1008
ETNN - Noervenich (gaf), Germany
Distance from station: SSW 97km
Aktuell: 23/02/2020 11:20

 Wind aus WSW
Wind: WSW 63 km/h, Windböen: 81 km/h
Temperatur: 13°C
Taupunkt: 9°C
Luftfeuchte: 77%
Luftdruck: 1010 hPa
Visibility: 8 km
2020/02/23 10:20 ETNN 231020Z AUTO 24034G44KT 8000 // ////// 13/09 Q1010 ///